Time;durP1;ratioP1;P1;durP2;ratioP2;P2;SDS_P1;SDS_P2;PMS_P1;PMS_P2;Temp;Humidity;BMP_temperature;BMP_pressure;BME280_temperature;BME280_humidity;BME280_pressure;Samples;Min_cycle;Max_cycle;Signal;HPM_P1;HPM_P2
2022/02/08 08:32:43;;;;;;;8.73;2.10;;;1.50;99.90;;;;;;5027896;27;20290;-77
2022/02/08 08:35:10;;;;;;;2.93;1.57;;;1.70;99.90;;;;;;5027025;28;20174;-77
2022/02/08 08:37:41;;;;;;;5.07;1.80;;;2.00;99.90;;;;;;5009391;28;20214;-77
2022/02/08 08:40:17;;;;;;;2.70;1.33;;;2.50;99.90;;;;;;5026750;28;20171;-77
2022/02/08 08:42:54;;;;;;;3.17;1.70;;;2.50;99.90;;;;;;5027428;28;20166;-77
2022/02/08 08:53:10;;;;;;;5.83;1.67;;;2.40;99.90;;;;;;5027076;28;20176;-77
2022/02/08 08:55:36;;;;;;;1.83;1.50;;;2.90;99.90;;;;;;5025668;28;20270;-77
2022/02/08 08:58:02;;;;;;;3.40;1.37;;;4.30;99.90;;;;;;5027163;28;20208;-77
2022/02/08 09:00:27;;;;;;;2.80;1.37;;;4.60;99.90;;;;;;5025701;28;20191;-77
2022/02/08 09:02:53;;;;;;;1.97;1.50;;;5.30;99.90;;;;;;5027095;28;20343;-77
2022/02/08 09:05:20;;;;;;;2.80;1.80;;;4.60;99.90;;;;;;5025666;28;20183;-77
2022/02/08 09:07:46;;;;;;;3.37;1.57;;;4.50;99.90;;;;;;5031713;28;20208;-77
2022/02/08 09:10:16;;;;;;;4.43;1.90;;;4.00;99.90;;;;;;5026719;28;20181;-77
2022/02/08 09:23:19;;;;;;;4.03;2.10;;;3.40;99.90;;;;;;5027397;28;20168;-77
2022/02/08 09:28:52;;;;;;;7.93;1.90;;;4.50;99.90;;;;;;5014485;28;20577;-79
2022/02/08 09:31:19;;;;;;;7.50;1.90;;;5.40;99.90;;;;;;5025042;28;20247;-78
2022/02/08 09:33:47;;;;;;;6.27;2.27;;;5.30;99.90;;;;;;5025306;28;20661;-78
2022/02/08 09:36:12;;;;;;;6.33;2.43;;;4.90;99.90;;;;;;5025317;28;20179;-78
2022/02/08 09:38:38;;;;;;;3.03;1.90;;;4.40;99.90;;;;;;5026466;28;20193;-78
2022/02/08 09:41:04;;;;;;;4.00;1.70;;;4.20;99.90;;;;;;5026616;28;20183;-78
2022/02/08 09:43:32;;;;;;;4.17;1.67;;;4.10;99.90;;;;;;5014935;28;20186;-77
2022/02/08 09:46:04;;;;;;;7.67;2.47;;;3.90;99.90;;;;;;5012909;28;20678;-77
2022/02/08 09:48:42;;;;;;;4.03;1.90;;;3.70;99.90;;;;;;5013043;28;20191;-77
2022/02/08 09:51:08;;;;;;;2.37;1.43;;;3.80;99.90;;;;;;5012980;28;20277;-77
2022/02/08 09:53:36;;;;;;;3.77;1.60;;;3.90;99.90;;;;;;5013179;28;20178;-77
2022/02/08 09:56:04;;;;;;;4.83;1.90;;;3.90;99.90;;;;;;5011758;28;20174;-77
2022/02/08 09:58:29;;;;;;;3.93;1.47;;;3.80;99.90;;;;;;5013019;28;20188;-78
2022/02/08 10:01:04;;;;;;;2.43;1.70;;;3.90;99.90;;;;;;5012886;28;20640;-78
2022/02/08 10:03:30;;;;;;;4.13;1.83;;;4.00;99.90;;;;;;5011738;28;20169;-77
2022/02/08 10:05:56;;;;;;;2.20;1.70;;;4.30;99.90;;;;;;5011449;28;20181;-78
2022/02/08 10:08:23;;;;;;;3.43;2.00;;;4.80;99.90;;;;;;5011438;28;20203;-77
2022/02/08 10:10:49;;;;;;;2.30;1.33;;;5.40;99.90;;;;;;5012709;28;20206;-77
2022/02/08 10:19:48;;;;;;;4.47;1.30;;;4.90;99.00;;;;;;5012858;28;20568;-78
2022/02/08 10:21:45;;;;;;;4.03;1.63;;;4.80;98.60;;;;;;5009513;28;20195;-78
2022/02/08 10:24:18;;;;;;;2.17;1.53;;;4.90;99.90;;;;;;5012402;28;20155;-78
2022/02/08 10:40:05;;;;;;;3.67;1.70;;;6.70;91.60;;;;;;5013855;28;20254;-78
2022/02/08 10:42:31;;;;;;;5.30;1.57;;;6.70;90.60;;;;;;5012147;28;20186;-78
2022/02/08 10:44:57;;;;;;;1.77;1.20;;;6.50;88.40;;;;;;5013534;28;20171;-78
2022/02/08 10:47:40;;;;;;;1.83;1.30;;;6.40;81.10;;;;;;5012307;28;20299;-79
2022/02/08 10:50:09;;;;;;;2.43;1.10;;;6.40;79.20;;;;;;5012850;28;20179;-79
2022/02/08 10:52:37;;;;;;;2.60;1.83;;;6.70;84.40;;;;;;5013750;28;20253;-79
2022/02/08 10:55:43;;;;;;;2.10;1.67;;;7.20;77.30;;;;;;5012605;28;20174;-78
2022/02/08 11:03:02;;;;;;;4.33;1.47;;;6.90;76.10;;;;;;5016735;28;20185;-77
2022/02/08 11:11:05;;;;;;;2.00;1.40;;;7.40;74.20;;;;;;5020290;28;20202;-78
2022/02/08 11:13:42;;;;;;;1.43;1.03;;;7.20;68.20;;;;;;5014725;28;20195;-78
2022/02/08 11:16:19;;;;;;;4.80;1.63;;;7.10;68.00;;;;;;5014431;28;20175;-78
2022/02/08 11:19:24;;;;;;;1.47;1.20;;;7.10;66.90;;;;;;5015308;28;20216;-78
2022/02/08 11:21:56;;;;;;;1.20;1.10;;;7.60;66.50;;;;;;5016806;28;20653;-79
2022/02/08 11:24:32;;;;;;;1.80;1.00;;;8.60;69.00;;;;;;5016255;28;20650;-78
2022/02/08 11:27:09;;;;;;;1.17;1.00;;;8.40;66.60;;;;;;5015257;28;20194;-79
2022/02/08 11:29:42;;;;;;;1.43;0.93;;;8.70;62.60;;;;;;5017731;28;20199;-78
2022/02/08 11:32:35;;;;;;;1.37;0.80;;;8.30;60.90;;;;;;5015356;28;20263;-78
2022/02/08 11:44:10;;;;;;;1.00;0.87;;;7.70;66.80;;;;;;5016825;28;20186;-79
2022/02/08 11:59:37;;;;;;;2.73;1.00;;;7.60;63.00;;;;;;5016447;28;20191;-79
2022/02/08 12:02:39;;;;;;;1.17;0.77;;;7.40;63.40;;;;;;5015170;28;20167;-78
2022/02/08 12:05:15;;;;;;;1.10;1.00;;;7.30;63.10;;;;;;5016739;28;20190;-79
2022/02/08 12:07:57;;;;;;;1.13;1.03;;;7.40;64.40;;;;;;5017720;28;20194;-78
2022/02/08 12:10:39;;;;;;;1.20;1.10;;;7.50;63.50;;;;;;5016415;28;20170;-79
2022/02/08 12:33:11;;;;;;;1.00;1.00;;;7.80;64.10;;;;;;5017315;28;20174;-79
2022/02/08 13:00:27;;;;;;;1.30;1.20;;;10.50;51.80;;;;;;5017149;28;20286;-78
2022/02/08 13:03:15;;;;;;;1.53;1.20;;;10.60;52.00;;;;;;5015358;28;20159;-78
2022/02/08 13:18:06;;;;;;;1.47;1.00;;;11.70;46.50;;;;;;5018772;28;20543;-78
2022/02/08 13:20:10;;;;;;;5.57;2.63;;;11.00;44.00;;;;;;5021096;28;20199;-79
2022/02/08 14:06:32;;;;;;;2.47;1.30;;;12.30;40.00;;;;;;4998911;28;20587;-78
2022/02/08 14:09:20;;;;;;;3.60;1.80;;;11.40;39.20;;;;;;4999142;28;20195;-78
2022/02/08 14:12:10;;;;;;;4.27;1.30;;;10.20;41.40;;;;;;5014684;28;20271;-78
2022/02/08 14:20:16;;;;;;;2.43;1.10;;;8.50;45.20;;;;;;5020580;28;20166;-78
2022/02/08 14:25:32;;;;;;;1.70;1.00;;;8.10;44.70;;;;;;5020706;28;20166;-78
2022/02/08 14:57:33;;;;;;;1.10;1.00;;;7.70;46.30;;;;;;5017076;28;20173;-78
2022/02/08 15:06:55;;;;;;;1.50;1.40;;;7.30;46.50;;;;;;5014136;28;20171;-78
2022/02/08 15:09:31;;;;;;;1.97;1.50;;;7.20;48.70;;;;;;5014084;28;20199;-78
2022/02/08 15:12:10;;;;;;;2.13;1.30;;;7.20;49.30;;;;;;5012513;28;20186;-78
2022/02/08 15:14:45;;;;;;;1.40;1.30;;;7.20;49.20;;;;;;5011928;28;20234;-77
2022/02/08 15:17:10;;;;;;;2.27;1.60;;;7.20;47.50;;;;;;5018732;28;20131;-78
2022/02/08 15:19:38;;;;;;;2.40;1.70;;;7.20;49.80;;;;;;5013621;28;20244;-77
2022/02/08 15:22:05;;;;;;;2.77;2.13;;;7.10;49.80;;;;;;5014049;28;20512;-78
2022/02/08 15:24:31;;;;;;;4.17;2.50;;;7.00;49.40;;;;;;5011889;28;20269;-78
2022/02/08 15:26:57;;;;;;;2.97;1.93;;;7.00;50.00;;;;;;5024318;28;20186;-78
2022/02/08 15:29:26;;;;;;;2.83;1.60;;;6.90;49.10;;;;;;5025656;28;20204;-78
2022/02/08 15:31:51;;;;;;;1.63;1.30;;;6.90;49.70;;;;;;5019301;28;20822;-77
2022/02/08 15:34:18;;;;;;;1.17;0.93;;;6.90;49.10;;;;;;5012559;28;20212;-78
2022/02/08 15:36:44;;;;;;;1.43;1.30;;;6.80;49.40;;;;;;5014168;28;20262;-78
2022/02/08 15:39:10;;;;;;;1.20;1.07;;;6.80;49.60;;;;;;5012489;28;20227;-78
2022/02/08 15:41:39;;;;;;;1.23;1.10;;;6.70;50.50;;;;;;5013833;28;20518;-78
2022/02/08 15:44:10;;;;;;;1.43;1.23;;;6.70;51.30;;;;;;5013501;28;20193;-78
2022/02/08 15:46:36;;;;;;;2.20;1.97;;;6.70;53.30;;;;;;5014466;28;20183;-78
2022/02/08 15:49:02;;;;;;;1.30;1.10;;;6.60;52.00;;;;;;5013317;28;20218;-78
2022/02/08 15:54:03;;;;;;;1.53;1.20;;;6.50;51.30;;;;;;5014528;28;20164;-78
2022/02/08 15:56:54;;;;;;;1.27;1.13;;;6.50;51.30;;;;;;5012890;28;20220;-78
2022/02/08 16:09:54;;;;;;;2.23;1.57;;;6.20;53.40;;;;;;5015405;28;20438;-78
2022/02/08 16:59:31;;;;;;;4.60;3.80;;;5.00;55.10;;;;;;5017117;28;20194;-78
2022/02/08 17:02:00;;;;;;;5.13;3.70;;;4.80;57.60;;;;;;5016004;28;20522;-78
2022/02/08 17:04:26;;;;;;;3.20;2.60;;;4.80;59.60;;;;;;5017559;28;20181;-78
2022/02/08 17:06:52;;;;;;;3.00;2.63;;;4.60;59.30;;;;;;5018980;28;20501;-78
2022/02/08 17:09:28;;;;;;;10.63;7.93;;;4.60;54.80;;;;;;5028972;28;20426;-77
2022/02/08 17:12:02;;;;;;;7.40;5.37;;;4.60;55.20;;;;;;5014601;28;20237;-77
2022/02/08 17:14:54;;;;;;;13.83;10.73;;;4.60;55.90;;;;;;5003002;28;20458;-77
2022/02/08 17:49:54;;;;;;;8.23;4.23;;;3.60;67.90;;;;;;5035666;28;20417;-79
2022/02/08 17:52:21;;;;;;;6.67;3.83;;;;;;;;;;5033767;28;20453;-78
2022/02/08 17:54:46;;;;;;;9.17;4.07;;;3.50;67.00;;;;;;5035657;28;20181;-78
2022/02/08 17:57:13;;;;;;;9.17;4.53;;;3.40;63.10;;;;;;5077715;28;20409;-78
2022/02/08 17:59:39;;;;;;;9.90;4.53;;;3.40;63.50;;;;;;5121291;28;20251;-78
2022/02/08 18:02:06;;;;;;;9.43;5.47;;;3.50;62.00;;;;;;5120372;28;20409;-78
2022/02/08 18:04:32;;;;;;;20.30;7.93;;;3.50;64.20;;;;;;5120569;28;20416;-78
2022/02/08 18:06:59;;;;;;;42.87;14.30;;;3.50;64.90;;;;;;5119306;28;20405;-78
2022/02/08 18:09:27;;;;;;;35.13;12.93;;;3.40;66.80;;;;;;5121864;28;20439;-79
2022/02/08 18:11:55;;;;;;;35.50;13.20;;;3.30;67.30;;;;;;5088701;28;21030;-78
2022/02/08 18:14:21;;;;;;;25.87;11.17;;;3.10;71.20;;;;;;5063973;28;20420;-78
2022/02/08 18:17:04;;;;;;;30.17;13.00;;;3.10;71.70;;;;;;5122302;28;20451;-78
2022/02/08 18:19:35;;;;;;;21.30;11.13;;;;;;;;;;5119526;28;20520;-77
2022/02/08 18:22:25;;;;;;;33.30;18.47;;;3.10;77.10;;;;;;5099378;28;20497;-78
2022/02/08 18:26:06;;;;;;;24.47;11.43;;;2.90;75.40;;;;;;5014694;28;20405;-78
2022/02/08 18:58:00;;;;;;;7.80;5.90;;;2.50;81.10;;;;;;4993389;28;20844;-77
2022/02/08 19:14:18;;;;;;;;;;;;;;;;;;;;;
2022/02/08 19:16:34;;;;;;;10.73;5.30;;;2.10;85.80;;;;;;4991590;28;20446;-77
2022/02/08 19:23:51;;;;;;;13.77;7.03;;;2.00;88.00;;;;;;4992417;28;20237;-77
2022/02/08 19:26:18;;;;;;;17.67;8.53;;;1.90;88.00;;;;;;4990756;28;20184;-77
2022/02/08 19:28:44;;;;;;;12.77;6.90;;;1.90;89.70;;;;;;4991904;28;20430;-77
2022/02/08 19:31:10;;;;;;;12.47;7.50;;;2.10;90.40;;;;;;4990535;28;20838;-77
2022/02/08 19:33:36;;;;;;;26.43;12.73;;;1.80;90.40;;;;;;4991864;28;20491;-77
2022/02/08 19:36:01;;;;;;;16.17;11.30;;;1.80;90.60;;;;;;4991841;28;20194;-77
2022/02/08 19:38:27;;;;;;;10.77;5.97;;;1.70;91.10;;;;;;4991726;28;20271;-77
2022/02/08 19:40:54;;;;;;;6.73;3.87;;;2.00;92.00;;;;;;4991698;28;20635;-77
2022/02/08 19:43:20;;;;;;;7.43;4.97;;;1.50;92.70;;;;;;4990474;28;20540;-77
2022/02/08 19:45:46;;;;;;;8.53;4.80;;;1.70;94.00;;;;;;4991505;28;20411;-77
2022/02/08 19:48:14;;;;;;;7.50;4.23;;;1.30;95.70;;;;;;4991622;28;20903;-77
2022/02/08 19:50:42;;;;;;;8.53;4.43;;;1.30;96.00;;;;;;4989915;28;20545;-77
2022/02/08 19:53:09;;;;;;;7.80;4.57;;;1.30;99.10;;;;;;4988499;28;20423;-77
2022/02/08 19:58:08;;;;;;;13.83;6.57;;;;;;;;;;4990919;28;20475;-77
2022/02/08 20:00:35;;;;;;;15.83;7.90;;;1.30;99.90;;;;;;4989360;28;20446;-77
2022/02/08 20:03:03;;;;;;;15.90;7.50;;;;;;;;;;4989295;28;20912;-77
2022/02/08 20:05:31;;;;;;;15.20;7.83;;;;;;;;;;4990634;28;20221;-77
2022/02/08 20:07:58;;;;;;;29.03;14.60;;;1.20;99.90;;;;;;4991108;28;20237;-77
2022/02/08 20:10:26;;;;;;;11.43;6.07;;;;;;;;;;4991167;28;20434;-77
2022/02/08 20:12:52;;;;;;;8.43;5.23;;;;;;;;;;4991185;28;20288;-77
2022/02/08 20:15:20;;;;;;;8.63;5.27;;;;;;;;;;4990910;28;20179;-77
2022/02/08 20:17:50;;;;;;;7.97;4.07;;;1.00;99.90;;;;;;4991244;28;20424;-77
2022/02/08 20:20:16;;;;;;;4.97;3.50;;;;;;;;;;4991254;28;20242;-77
2022/02/08 20:22:47;;;;;;;6.70;3.47;;;0.90;99.90;;;;;;4990958;28;20449;-77
2022/02/08 20:25:14;;;;;;;6.30;3.80;;;0.90;99.90;;;;;;4989516;28;20477;-77
2022/02/08 20:27:49;;;;;;;7.67;3.83;;;;;;;;;;4990883;28;20633;-77
2022/02/08 20:30:20;;;;;;;6.57;4.17;;;0.80;99.90;;;;;;4990920;28;20164;-77
2022/02/08 20:32:46;;;;;;;8.53;5.13;;;1.00;99.90;;;;;;4989415;28;20567;-77
2022/02/08 20:35:12;;;;;;;8.50;5.27;;;;;;;;;;4990766;28;20258;-77
2022/02/08 20:37:41;;;;;;;9.93;5.97;;;1.00;99.90;;;;;;4991044;28;20214;-77
2022/02/08 20:40:08;;;;;;;9.63;5.77;;;1.10;99.90;;;;;;4989522;28;20438;-77
2022/02/08 20:42:34;;;;;;;9.73;5.13;;;;;;;;;;4990637;28;20415;-77
2022/02/08 20:45:00;;;;;;;6.57;4.53;;;;;;;;;;4990736;28;20893;-79
2022/02/08 20:47:27;;;;;;;7.90;4.77;;;0.70;99.90;;;;;;4990539;28;20770;-77
2022/02/08 20:50:17;;;;;;;9.80;5.30;;;0.90;99.90;;;;;;4991011;28;20183;-77
2022/02/08 20:52:50;;;;;;;7.70;5.10;;;2.20;99.90;;;;;;4990861;28;20481;-77
2022/02/08 20:55:19;;;;;;;11.83;6.30;;;0.90;99.90;;;;;;4990749;28;20387;-78
2022/02/08 20:57:51;;;;;;;13.20;6.33;;;0.90;99.90;;;;;;4991067;28;20431;-76
2022/02/08 21:00:19;;;;;;;14.07;6.73;;;0.80;99.90;;;;;;4989601;28;20415;-77
2022/02/08 21:02:59;;;;;;;12.13;5.80;;;1.10;99.90;;;;;;4991435;28;20431;-77
2022/02/08 21:07:54;;;;;;;8.77;4.43;;;0.70;99.90;;;;;;4990851;28;20245;-77
2022/02/08 21:10:22;;;;;;;5.23;3.93;;;0.70;99.90;;;;;;4990642;28;20179;-77
2022/02/08 21:13:41;;;;;;;5.07;3.53;;;0.60;99.90;;;;;;4990329;28;20467;-77
2022/02/08 21:15:35;;;;;;;6.13;3.60;;;0.70;99.90;;;;;;5003911;28;20431;-76
2022/02/08 21:18:02;;;;;;;8.13;3.93;;;1.10;99.90;;;;;;4995065;28;20448;-77
2022/02/08 21:20:28;;;;;;;7.37;4.43;;;0.70;99.90;;;;;;4989125;28;20633;-77
2022/02/08 21:22:54;;;;;;;5.17;3.73;;;0.70;99.90;;;;;;4991635;28;20551;-76
2022/02/08 21:25:20;;;;;;;8.60;3.97;;;0.80;99.90;;;;;;4987044;28;20683;-76
2022/02/08 21:27:54;;;;;;;4.87;3.53;;;0.70;99.90;;;;;;5031334;28;20210;-76
2022/02/08 21:30:35;;;;;;;7.30;3.73;;;0.70;99.90;;;;;;5032727;28;20420;-77
2022/02/08 21:49:18;;;;;;;4.40;2.87;;;0.90;99.90;;;;;;5035816;28;20436;-77
2022/02/08 21:54:21;;;;;;;3.47;2.23;;;1.00;99.90;;;;;;5035873;28;20909;-77
2022/02/08 21:56:47;;;;;;;4.40;2.10;;;1.00;99.90;;;;;;5035719;28;20497;-77
2022/02/08 21:59:13;;;;;;;3.27;2.73;;;0.90;99.90;;;;;;5035776;28;20508;-77
2022/02/08 22:01:39;;;;;;;6.77;2.77;;;0.90;99.90;;;;;;5035671;28;20905;-77
2022/02/08 22:04:04;;;;;;;4.17;3.20;;;0.90;99.90;;;;;;5035662;28;20182;-77
2022/02/08 22:06:30;;;;;;;6.60;3.23;;;1.00;99.90;;;;;;5035625;28;20257;-77
2022/02/08 22:08:58;;;;;;;5.67;2.63;;;0.80;99.90;;;;;;5035755;28;20284;-77
2022/02/08 22:17:23;;;;;;;4.20;2.90;;;0.60;99.90;;;;;;5035291;28;20397;-78
2022/02/08 22:22:26;;;;;;;5.67;3.50;;;0.30;99.90;;;;;;5033299;28;20393;-77
2022/02/08 22:25:14;;;;;;;5.30;3.40;;;0.20;99.90;;;;;;5033172;28;20436;-77
2022/02/08 22:27:48;;;;;;;5.10;3.13;;;0.00;99.90;;;;;;5032871;28;20527;-77
2022/02/08 22:32:49;;;;;;;4.57;3.07;;;-3.00;99.90;;;;;;5033680;28;20553;-77
2022/02/08 22:35:24;;;;;;;5.10;3.17;;;-0.10;99.90;;;;;;5034174;28;20417;-77
2022/02/08 22:38:17;;;;;;;4.93;3.57;;;-0.20;99.90;;;;;;5033565;28;20448;-76
2022/02/08 22:40:39;;;;;;;3.30;2.53;;;-0.20;99.90;;;;;;5034609;28;20429;-77
2022/02/08 22:43:10;;;;;;;5.50;2.73;;;-0.30;99.90;;;;;;5034196;28;20421;-77
2022/02/08 22:45:36;;;;;;;5.20;2.97;;;-0.20;99.90;;;;;;5034726;28;20393;-77
2022/02/08 22:48:06;;;;;;;4.67;2.57;;;-0.30;99.90;;;;;;5034479;28;20433;-77
2022/02/08 22:50:32;;;;;;;4.90;3.10;;;-0.30;99.90;;;;;;5033403;28;20186;-77
2022/02/08 22:52:59;;;;;;;8.10;2.67;;;-0.30;99.90;;;;;;5034465;28;20795;-77
2022/02/08 22:55:29;;;;;;;4.83;3.47;;;-0.20;99.90;;;;;;5034427;28;20416;-77
2022/02/08 22:58:01;;;;;;;5.00;3.03;;;-0.30;99.90;;;;;;5033120;28;20479;-77
2022/02/08 23:00:27;;;;;;;4.87;3.30;;;-0.30;99.90;;;;;;5033184;28;20840;-77
2022/02/08 23:02:53;;;;;;;4.67;3.30;;;-0.30;99.90;;;;;;5034622;28;20445;-77
2022/02/08 23:05:20;;;;;;;9.17;3.93;;;-0.40;99.90;;;;;;5032714;28;20213;-77
2022/02/08 23:07:48;;;;;;;6.80;4.07;;;-0.40;99.90;;;;;;5034210;28;20220;-77
2022/02/08 23:10:17;;;;;;;7.57;3.50;;;-0.30;99.90;;;;;;5034554;28;20811;-77
2022/02/08 23:12:57;;;;;;;7.53;3.97;;;-0.40;99.90;;;;;;5034750;28;20456;-77
2022/02/08 23:15:50;;;;;;;6.57;3.93;;;;;;;;;;5034081;28;20400;-77
2022/02/08 23:37:33;;;;;;;8.03;3.43;;;-0.70;99.90;;;;;;5034269;28;20393;-77
2022/02/08 23:39:59;;;;;;;7.17;3.77;;;-0.60;99.90;;;;;;5033767;28;20410;-77
2022/02/08 23:42:25;;;;;;;7.73;3.63;;;-0.60;99.90;;;;;;5033627;28;20259;-77
2022/02/08 23:44:50;;;;;;;5.77;3.37;;;-0.70;99.90;;;;;;5033534;28;20277;-77
2022/02/08 23:47:22;;;;;;;4.00;3.23;;;-0.70;99.90;;;;;;5033805;28;20173;-77
2022/02/08 23:49:55;;;;;;;4.27;3.37;;;-0.70;99.90;;;;;;5032279;28;20628;-77
2022/02/08 23:52:29;;;;;;;5.83;3.40;;;-0.80;99.90;;;;;;5033516;28;20479;-77
2022/02/08 23:54:55;;;;;;;4.93;3.40;;;-0.80;99.90;;;;;;5033512;28;20847;-77
2022/02/08 23:57:26;;;;;;;6.27;3.77;;;-0.90;99.90;;;;;;5032041;28;20413;-77
2022/02/08 23:59:51;;;;;;;6.23;3.57;;;-0.90;99.90;;;;;;5033820;28;20157;-77
